CheckWX is a tool to help pilots better visualize weather data.  It is not intended as a substitute for an official pre-flight weather briefing.

03:17:02 UTC

KJVL METAR
Southern Wisconsin Regional Airport
Janesville, Wisconsin, USA
Current

42 mins ago

KJVL 230235Z AUTO 27003KT 10SM SCT017 BKN022 OVC060 18/18 A2984 RMK AO2
Observed
Sep-23 @ 02:35 UTC
Wind
  • 270° at 3 KTS
Visibility
10 SM
Flight Rules
MVFR
Cloud Levels
  • Scattered at 1,700' AGL
  • Broken at 2,200' AGL
  • Overcast at 6,000' AGL
Temperature
18°C / 64°F
Dewpoint
18°C / 64°F
Humidity
100%
Altimeter
29.84" Hg
Pressure
1010.52 hPa
Previous

1 hour ago

KJVL 230215Z AUTO 27004KT 10SM SCT022 BKN030 BKN038 18/18 A2985 RMK AO2
Observed
Sep-23 @ 02:15 UTC
Wind
  • 270° at 4 KTS
Visibility
10 SM
Flight Rules
MVFR
Cloud Levels
  • Scattered at 2,200' AGL
  • Broken at 3,000' AGL
  • Broken at 3,800' AGL
Temperature
18°C / 64°F
Dewpoint
18°C / 64°F
Humidity
100%
Altimeter
29.85" Hg
Pressure
1010.82 hPa
Previous

1 hour ago

KJVL 230155Z AUTO 25004KT 10SM SCT038 18/18 A2984 RMK AO2
Observed
Sep-23 @ 01:55 UTC
Wind
  • 250° at 4 KTS
Visibility
10 SM
Flight Rules
VFR
Cloud Levels
  • Scattered at 3,800' AGL
Temperature
18°C / 64°F
Dewpoint
18°C / 64°F
Humidity
100%
Altimeter
29.84" Hg
Pressure
1010.52 hPa